Time;durP1;ratioP1;P1;durP2;ratioP2;P2;SDS_P1;SDS_P2;PMS_P1;PMS_P2;Temp;Humidity;BMP_temperature;BMP_pressure;BME280_temperature;BME280_humidity;BME280_pressure;Samples;Min_cycle;Max_cycle;Signal;HPM_P1;HPM_P2
2023/06/01 00:01:01;;;;;;;6.40;2.60;;;;;;;12.76;60.42;96936.46;109297;1266;22507;-81
2023/06/01 00:03:47;;;;;;;5.60;2.40;;;;;;;12.76;60.65;96936.58;109208;1260;22519;-81
2023/06/01 00:06:18;;;;;;;3.80;2.70;;;;;;;12.68;60.69;96933.68;109176;1270;23994;-80
2023/06/01 00:08:49;;;;;;;5.70;3.00;;;;;;;12.59;60.79;96929.33;109173;1265;23089;-81
2023/06/01 00:11:23;;;;;;;4.60;2.90;;;;;;;12.55;60.97;96928.73;109175;1270;24228;-80
2023/06/01 00:13:54;;;;;;;7.20;2.90;;;;;;;12.61;61.16;96932.43;109340;1260;22544;-81
2023/06/01 00:16:25;;;;;;;4.70;2.60;;;;;;;12.67;61.22;96933.92;109322;1266;22547;-81
2023/06/01 00:18:57;;;;;;;4.30;2.40;;;;;;;12.70;61.20;96929.36;109331;1269;22523;-81
2023/06/01 00:21:28;;;;;;;5.10;2.30;;;;;;;12.73;61.15;96926.98;109328;1264;25568;-80
2023/06/01 00:23:59;;;;;;;5.30;2.50;;;;;;;12.79;61.14;96922.70;109245;1260;22917;-81
2023/06/01 00:26:31;;;;;;;4.70;2.60;;;;;;;12.83;61.02;96921.02;109321;1263;22498;-81
2023/06/01 00:29:02;;;;;;;4.50;2.60;;;;;;;12.81;60.96;96922.05;109275;1266;22516;-81
2023/06/01 00:31:33;;;;;;;4.10;2.20;;;;;;;12.82;61.05;96922.36;109094;1269;22502;-80
2023/06/01 00:34:04;;;;;;;3.70;2.30;;;;;;;12.72;60.99;96921.77;109108;1269;22586;-81
2023/06/01 00:36:36;;;;;;;9.10;3.00;;;;;;;12.58;61.15;96923.33;109149;1269;22526;-81
2023/06/01 00:39:10;;;;;;;3.20;2.30;;;;;;;12.56;61.36;96923.77;109215;1269;22514;-81
2023/06/01 00:41:41;;;;;;;4.70;2.70;;;;;;;12.58;61.39;96918.39;109162;1269;22564;-80
2023/06/01 00:44:12;;;;;;;5.60;2.90;;;;;;;12.56;61.49;96917.88;109195;1269;22526;-80
2023/06/01 00:46:43;;;;;;;4.80;2.90;;;;;;;12.60;61.58;96919.59;109127;1269;22526;-80
2023/06/01 00:49:14;;;;;;;6.00;3.60;;;;;;;12.54;61.43;96920.60;109152;1269;22511;-80
2023/06/01 00:51:45;;;;;;;6.60;3.30;;;;;;;12.47;61.59;96921.36;109179;1269;25284;-80
2023/06/01 00:54:16;;;;;;;6.30;3.30;;;;;;;12.47;61.60;96920.34;109228;1269;22599;-81
2023/06/01 00:56:47;;;;;;;5.00;3.10;;;;;;;12.45;61.68;96921.96;109204;1269;22547;-81
2023/06/01 00:59:18;;;;;;;7.20;3.30;;;;;;;12.43;61.68;96920.77;109179;1269;24200;-80
2023/06/01 01:01:49;;;;;;;5.00;2.40;;;;;;;12.42;61.77;96920.73;109116;1269;23312;-80
2023/06/01 01:04:25;;;;;;;5.00;2.40;;;;;;;12.41;61.77;96919.30;109050;1270;22508;-81
2023/06/01 01:07:07;;;;;;;6.20;3.00;;;;;;;12.47;61.91;96919.40;109070;1270;22514;-80
2023/06/01 01:09:45;;;;;;;5.10;2.90;;;;;;;12.57;61.65;96917.38;109094;1270;22547;-80
2023/06/01 01:12:24;;;;;;;5.00;2.80;;;;;;;12.63;61.52;96910.77;109097;1266;24197;-80
2023/06/01 01:15:00;;;;;;;6.60;3.30;;;;;;;12.70;61.31;96911.07;109139;1269;25536;-80
2023/06/01 01:17:38;;;;;;;4.40;2.80;;;;;;;12.70;61.17;96912.08;109185;1269;25268;-81
2023/06/01 01:20:15;;;;;;;5.30;2.90;;;;;;;12.76;61.13;96916.62;109175;1269;22515;-80
2023/06/01 01:23:16;;;;;;;4.80;3.20;;;;;;;12.79;60.99;96911.52;109044;1269;25395;-80
2023/06/01 01:26:09;;;;;;;5.70;3.10;;;;;;;12.79;60.80;96914.61;109071;1267;24263;-80
2023/06/01 01:28:47;;;;;;;3.40;2.60;;;;;;;12.82;60.83;96911.20;109121;1270;22513;-81
2023/06/01 01:31:23;;;;;;;4.10;2.80;;;;;;;12.88;60.78;96915.69;109077;1270;22519;-80
2023/06/01 01:33:57;;;;;;;4.70;2.90;;;;;;;12.92;60.67;96912.11;109118;1269;22595;-80
2023/06/01 01:36:28;;;;;;;6.70;3.20;;;;;;;12.94;60.53;96908.95;109137;1269;22936;-80
2023/06/01 01:38:59;;;;;;;5.10;3.00;;;;;;;12.94;60.53;96915.76;109199;1269;22512;-81
2023/06/01 01:41:30;;;;;;;6.70;3.30;;;;;;;12.94;60.47;96913.00;109141;1264;25296;-80
2023/06/01 01:44:02;;;;;;;6.90;3.40;;;;;;;12.91;60.52;96910.70;109162;1269;22501;-80
2023/06/01 01:46:44;;;;;;;5.90;3.30;;;;;;;12.85;60.44;96908.49;109162;1262;22519;-80
2023/06/01 01:49:24;;;;;;;3.70;2.80;;;;;;;12.82;60.54;96904.33;109226;1269;24414;-80
2023/06/01 01:52:01;;;;;;;5.20;3.00;;;;;;;12.81;60.61;96904.50;109173;1269;22544;-80
2023/06/01 01:54:37;;;;;;;6.90;3.00;;;;;;;12.79;60.66;96900.98;109199;1269;22528;-80
2023/06/01 01:57:10;;;;;;;3.80;2.80;;;;;;;12.80;60.74;96905.52;109188;1269;24093;-81
2023/06/01 01:59:44;;;;;;;6.20;2.60;;;;;;;12.80;60.69;96904.08;109137;1269;22514;-80
2023/06/01 02:02:15;;;;;;;5.60;3.10;;;;;;;12.80;60.65;96901.19;109173;1264;22530;-81
2023/06/01 02:04:47;;;;;;;6.10;3.20;;;;;;;12.77;60.54;96899.73;109196;1269;22519;-80
2023/06/01 02:07:17;;;;;;;4.50;2.80;;;;;;;12.74;60.71;96895.58;109171;1269;25234;-80
2023/06/01 02:09:48;;;;;;;6.90;3.00;;;;;;;12.74;60.68;96893.77;109163;1264;22586;-80
2023/06/01 02:12:19;;;;;;;4.70;2.90;;;;;;;12.74;60.68;96892.07;109181;1269;22531;-80
2023/06/01 02:14:50;;;;;;;8.10;3.30;;;;;;;12.76;60.70;96889.54;109168;1269;22550;-80
2023/06/01 02:17:21;;;;;;;6.70;3.10;;;;;;;12.77;60.68;96889.80;109178;1263;22545;-80
2023/06/01 02:19:52;;;;;;;4.80;2.80;;;;;;;12.77;60.61;96887.61;109214;1269;22506;-80
2023/06/01 02:22:23;;;;;;;6.60;3.20;;;;;;;12.78;60.58;96886.00;109175;1261;23678;-80
2023/06/01 02:24:55;;;;;;;5.40;2.90;;;;;;;12.81;60.65;96885.70;109186;1263;22617;-80
2023/06/01 02:27:25;;;;;;;4.70;3.10;;;;;;;12.81;60.60;96879.91;109154;1269;22506;-81
2023/06/01 02:29:57;;;;;;;4.40;2.70;;;;;;;12.81;60.57;96880.88;109196;1269;22528;-80
2023/06/01 02:32:30;;;;;;;5.00;2.80;;;;;;;12.79;60.46;96878.11;109163;1269;22561;-80
2023/06/01 02:35:01;;;;;;;5.40;3.00;;;;;;;12.81;60.51;96874.64;109207;1269;24226;-81
2023/06/01 02:37:32;;;;;;;8.60;3.40;;;;;;;12.84;60.53;96870.94;109111;1264;22663;-80
2023/06/01 02:40:03;;;;;;;5.40;3.20;;;;;;;12.86;60.60;96871.82;109220;1269;22529;-81
2023/06/01 02:42:34;;;;;;;5.10;3.30;;;;;;;12.86;60.46;96866.91;109167;1264;22514;-81
2023/06/01 02:45:06;;;;;;;5.60;3.10;;;;;;;12.86;60.64;96864.09;109216;1269;22511;-81
2023/06/01 02:47:38;;;;;;;4.20;3.00;;;;;;;12.84;60.55;96859.92;109313;1246;22527;-81
2023/06/01 02:50:11;;;;;;;4.30;3.00;;;;;;;12.80;60.56;96863.73;109267;1266;22516;-81
2023/06/01 02:52:43;;;;;;;5.00;2.90;;;;;;;12.77;60.59;96859.94;109322;1261;22522;-81
2023/06/01 02:55:14;;;;;;;3.70;2.60;;;;;;;12.74;60.71;96858.55;109321;1269;22524;-81
2023/06/01 02:57:45;;;;;;;9.00;3.30;;;;;;;12.75;60.81;96856.63;109313;1248;25386;-81
2023/06/01 03:00:17;;;;;;;5.60;3.20;;;;;;;12.74;60.72;96853.82;109298;1269;24266;-81
2023/06/01 03:02:48;;;;;;;3.50;2.60;;;;;;;12.71;60.78;96855.13;109279;1269;22551;-81
2023/06/01 03:05:21;;;;;;;5.10;2.60;;;;;;;12.71;60.80;96856.88;109275;1269;22489;-81
2023/06/01 03:07:52;;;;;;;5.10;3.10;;;;;;;12.73;60.77;96856.00;109263;1269;22539;-81
2023/06/01 03:10:23;;;;;;;5.10;2.90;;;;;;;12.74;60.79;96858.81;109260;1269;22521;-81
2023/06/01 03:12:54;;;;;;;6.10;3.10;;;;;;;12.77;61.08;96859.20;109293;1264;24501;-81
2023/06/01 03:15:27;;;;;;;4.80;2.70;;;;;;;12.80;60.95;96862.20;109283;1267;23005;-81
2023/06/01 03:17:58;;;;;;;7.30;3.00;;;;;;;12.83;60.85;96864.08;109294;1264;22649;-81
2023/06/01 03:20:29;;;;;;;4.80;2.50;;;;;;;12.83;60.91;96862.33;109288;1264;25339;-81
2023/06/01 03:23:00;;;;;;;4.70;2.90;;;;;;;12.86;60.88;96860.31;109263;1264;22527;-81
2023/06/01 03:25:33;;;;;;;5.20;2.80;;;;;;;12.89;60.97;96858.04;109310;1269;22603;-81
2023/06/01 03:28:06;;;;;;;6.90;3.30;;;;;;;12.92;61.06;96862.77;109340;1269;22521;-81
2023/06/01 03:30:37;;;;;;;6.10;2.90;;;;;;;12.94;61.07;96860.58;109280;1264;22522;-81
2023/06/01 03:33:08;;;;;;;3.70;2.70;;;;;;;13.00;61.15;96862.95;109322;1269;25405;-81
2023/06/01 03:35:40;;;;;;;8.20;2.90;;;;;;;13.06;61.06;96859.77;109141;1264;22538;-81
2023/06/01 03:38:11;;;;;;;6.60;3.10;;;;;;;13.12;61.06;96857.14;109188;1267;22979;-81
2023/06/01 03:40:42;;;;;;;6.80;3.30;;;;;;;13.17;60.98;96852.98;109229;1261;22548;-82
2023/06/01 03:43:13;;;;;;;6.60;2.70;;;;;;;13.20;60.88;96851.36;109133;1269;25398;-82
2023/06/01 03:45:43;;;;;;;7.40;2.90;;;;;;;13.23;60.88;96848.02;109179;1264;23670;-82
2023/06/01 03:48:14;;;;;;;4.10;3.10;;;;;;;13.28;60.95;96847.63;109182;1264;22522;-82
2023/06/01 03:50:46;;;;;;;4.00;2.90;;;;;;;13.32;61.03;96842.86;109180;1269;24306;-81
2023/06/01 03:53:17;;;;;;;5.90;3.00;;;;;;;13.34;60.88;96842.30;109118;1261;24312;-82
2023/06/01 03:55:48;;;;;;;4.70;3.10;;;;;;;13.38;61.01;96844.33;109211;1269;22511;-82
2023/06/01 03:58:19;;;;;;;6.80;3.20;;;;;;;13.44;60.96;96839.98;109141;1269;22508;-82
2023/06/01 04:00:51;;;;;;;4.50;2.90;;;;;;;13.49;60.87;96836.26;109184;1269;25249;-82
2023/06/01 04:03:22;;;;;;;5.90;3.10;;;;;;;13.54;60.86;96840.46;109213;1269;23332;-82
2023/06/01 04:05:58;;;;;;;4.10;2.80;;;;;;;13.57;60.70;96838.23;109201;1269;22687;-82
2023/06/01 04:08:30;;;;;;;5.70;3.00;;;;;;;13.61;60.52;96835.44;109236;1266;22519;-81
2023/06/01 04:11:01;;;;;;;3.90;2.60;;;;;;;13.63;60.52;96840.14;109225;1266;24496;-81
2023/06/01 04:13:32;;;;;;;6.40;3.20;;;;;;;13.62;60.45;96837.48;108996;1264;22515;-79
2023/06/01 04:16:03;;;;;;;8.00;2.80;;;;;;;13.63;60.56;96835.17;109056;1262;22518;-81
2023/06/01 04:18:34;;;;;;;6.80;3.20;;;;;;;13.61;60.44;96834.48;109096;1269;22567;-82
2023/06/01 04:21:06;;;;;;;6.20;3.00;;;;;;;13.59;60.51;96830.99;109062;1267;22548;-82
2023/06/01 04:23:38;;;;;;;4.80;3.00;;;;;;;13.58;60.59;96831.55;109282;1269;22516;-82
2023/06/01 04:26:09;;;;;;;5.90;2.80;;;;;;;13.59;60.60;96833.54;109296;1269;25259;-82
2023/06/01 04:28:43;;;;;;;4.30;3.10;;;;;;;13.63;60.68;96832.98;109271;1269;22511;-82
2023/06/01 04:31:16;;;;;;;5.30;3.00;;;;;;;13.69;60.76;96833.02;109204;1264;22517;-82
2023/06/01 04:33:52;;;;;;;4.50;3.00;;;;;;;13.75;60.76;96831.59;109226;1261;22560;-81
2023/06/01 04:36:23;;;;;;;5.90;3.40;;;;;;;13.80;60.66;96826.33;109208;1269;22620;-82
2023/06/01 04:38:57;;;;;;;4.50;2.60;;;;;;;13.89;60.56;96831.65;109126;1269;22504;-82
2023/06/01 04:41:29;;;;;;;6.10;3.20;;;;;;;13.99;60.57;96828.34;109241;1269;22555;-80
2023/06/01 04:44:00;;;;;;;6.70;2.80;;;;;;;14.07;60.40;96825.09;109198;1269;22596;-82
2023/06/01 04:46:31;;;;;;;5.40;3.10;;;;;;;14.14;60.27;96825.09;109141;1266;24184;-81
2023/06/01 04:49:02;;;;;;;4.30;2.70;;;;;;;14.18;60.21;96827.66;109188;1258;26576;-82
2023/06/01 04:51:36;;;;;;;3.70;2.70;;;;;;;14.22;60.06;96826.05;109117;1260;22553;-81
2023/06/01 04:54:07;;;;;;;5.90;3.10;;;;;;;14.23;60.14;96822.98;109058;1262;25335;-81
2023/06/01 04:56:38;;;;;;;5.60;2.80;;;;;;;14.27;60.19;96823.38;109057;1264;24232;-82
2023/06/01 04:59:09;;;;;;;9.40;3.30;;;;;;;14.34;60.17;96821.70;109080;1267;22512;-81
2023/06/01 05:01:40;;;;;;;6.50;3.30;;;;;;;14.44;59.90;96819.82;109016;1263;25246;-81
2023/06/01 05:04:11;;;;;;;6.20;3.10;;;;;;;14.56;59.98;96819.06;109028;1270;22582;-82
2023/06/01 05:06:42;;;;;;;6.70;3.30;;;;;;;14.72;59.95;96815.27;109028;1270;22509;-82
2023/06/01 05:09:14;;;;;;;4.40;2.90;;;;;;;14.90;60.09;96813.96;109066;1270;25395;-82
2023/06/01 05:11:45;;;;;;;5.70;3.40;;;;;;;15.47;60.16;96809.56;108997;1263;24162;-82
2023/06/01 05:14:16;;;;;;;5.70;3.20;;;;;;;16.95;60.29;96810.44;109186;1262;22511;-82
2023/06/01 05:16:48;;;;;;;6.00;3.30;;;;;;;18.87;58.53;96807.11;109169;1269;22528;-82
2023/06/01 05:19:20;;;;;;;4.20;3.10;;;;;;;20.61;55.89;96799.36;109225;1267;22535;-82
2023/06/01 05:21:51;;;;;;;12.30;3.30;;;;;;;21.95;53.55;96806.52;109147;1269;22991;-82
2023/06/01 05:24:22;;;;;;;6.40;3.50;;;;;;;23.26;51.63;96798.32;109080;1270;22557;-83
2023/06/01 05:26:53;;;;;;;4.60;3.10;;;;;;;24.16;49.72;96796.15;109092;1270;24249;-83
2023/06/01 05:29:24;;;;;;;5.00;2.80;;;;;;;24.76;48.16;96795.95;109057;1270;22514;-83
2023/06/01 05:31:55;;;;;;;5.60;2.90;;;;;;;25.31;46.54;96796.16;109075;1267;22507;-83
2023/06/01 05:34:26;;;;;;;6.10;3.00;;;;;;;25.84;45.39;96797.64;109269;1263;22597;-83
2023/06/01 05:36:57;;;;;;;5.20;3.20;;;;;;;26.31;44.58;96795.74;109154;1266;22505;-83
2023/06/01 05:39:28;;;;;;;8.90;3.10;;;;;;;26.58;43.23;96796.36;109243;1263;22515;-83
2023/06/01 05:42:00;;;;;;;5.00;3.10;;;;;;;26.92;42.45;96794.57;109209;1262;24228;-84
2023/06/01 05:44:32;;;;;;;6.30;3.00;;;;;;;27.24;41.31;96799.02;109333;1266;22641;-84
2023/06/01 05:47:02;;;;;;;4.20;2.80;;;;;;;27.28;40.39;96797.33;109290;1263;22510;-84
2023/06/01 05:49:34;;;;;;;7.20;2.60;;;;;;;27.38;39.33;96790.77;109289;1247;22519;-83
2023/06/01 05:52:06;;;;;;;6.00;3.00;;;;;;;27.28;38.57;96795.70;109156;1266;22513;-84
2023/06/01 05:54:37;;;;;;;3.80;2.90;;;;;;;27.34;38.58;96792.77;109086;1267;25294;-83
2023/06/01 05:57:09;;;;;;;4.30;2.80;;;;;;;27.46;37.89;96791.17;109077;1263;25214;-84
2023/06/01 05:59:42;;;;;;;5.40;3.00;;;;;;;27.74;37.45;96788.57;109055;1263;22564;-84
2023/06/01 06:02:13;;;;;;;6.00;2.90;;;;;;;28.11;37.21;96789.09;109068;1266;22504;-84
2023/06/01 06:04:44;;;;;;;6.20;2.80;;;;;;;28.23;36.03;96782.58;109134;1263;24252;-84
2023/06/01 06:07:16;;;;;;;6.10;3.20;;;;;;;27.88;35.88;96784.63;109064;1263;24338;-84
2023/06/01 06:09:46;;;;;;;5.20;2.80;;;;;;;27.61;36.31;96783.61;109135;1269;22518;-84
2023/06/01 06:12:17;;;;;;;6.10;3.20;;;;;;;27.44;36.39;96780.44;109175;1269;25402;-84
2023/06/01 06:14:48;;;;;;;7.50;3.40;;;;;;;27.64;36.39;96779.41;109286;1264;22707;-83
2023/06/01 06:17:19;;;;;;;4.80;2.90;;;;;;;27.68;36.26;96782.02;109356;1266;22559;-84
2023/06/01 06:19:50;;;;;;;5.20;2.70;;;;;;;27.97;36.21;96780.19;109216;1261;22511;-85
2023/06/01 06:22:21;;;;;;;4.80;2.90;;;;;;;28.04;35.75;96782.79;109146;1263;22505;-84
2023/06/01 06:24:52;;;;;;;5.50;3.40;;;;;;;28.09;35.88;96780.60;109239;1269;22518;-84
2023/06/01 06:27:23;;;;;;;5.60;3.20;;;;;;;27.83;35.80;96782.20;109244;1269;22630;-84
2023/06/01 06:29:53;;;;;;;5.10;3.20;;;;;;;27.87;36.16;96781.60;109200;1254;24269;-84
2023/06/01 06:32:24;;;;;;;4.60;2.90;;;;;;;27.75;35.41;96783.02;109123;1261;22589;-83
2023/06/01 06:34:55;;;;;;;4.20;3.20;;;;;;;27.44;35.94;96781.21;109104;1247;22527;-83
2023/06/01 06:37:27;;;;;;;4.80;2.80;;;;;;;27.70;36.49;96776.88;109219;1263;22530;-81
2023/06/01 06:39:58;;;;;;;6.00;3.00;;;;;;;27.98;36.20;96776.39;109068;1269;22570;-85
2023/06/01 06:42:30;;;;;;;3.70;2.70;;;;;;;28.13;36.00;96776.39;109245;1263;22816;-84
2023/06/01 06:45:00;;;;;;;5.20;2.60;;;;;;;28.13;35.78;96771.80;109179;1263;23170;-84
2023/06/01 06:47:32;;;;;;;4.90;2.90;;;;;;;28.27;35.45;96769.50;109240;1263;22530;-84
2023/06/01 06:50:03;;;;;;;6.50;3.20;;;;;;;28.09;35.14;96770.70;109158;1269;22680;-83
2023/06/01 06:52:34;;;;;;;5.40;3.10;;;;;;;27.90;35.09;96768.89;109210;1269;25357;-81
2023/06/01 06:55:05;;;;;;;4.40;2.70;;;;;;;27.53;35.10;96768.48;109167;1263;22511;-81
2023/06/01 06:57:36;;;;;;;7.30;2.30;;;;;;;27.52;35.23;96765.52;109164;1260;22511;-80
2023/06/01 07:00:14;;;;;;;6.30;2.60;;;;;;;27.12;34.91;96769.34;109173;1263;25470;-81
2023/06/01 07:02:46;;;;;;;6.50;2.90;;;;;;;26.96;35.12;96766.52;109262;1264;22518;-79
2023/06/01 07:05:17;;;;;;;4.60;2.60;;;;;;;26.80;35.33;96764.95;109236;1269;22760;-79
2023/06/01 07:07:48;;;;;;;4.30;2.70;;;;;;;26.95;34.62;96757.96;109157;1267;22516;-82
2023/06/01 07:10:20;;;;;;;3.70;2.60;;;;;;;26.76;34.53;96764.92;109231;1269;22527;-81
2023/06/01 07:12:50;;;;;;;4.70;2.80;;;;;;;26.94;34.29;96762.55;104975;1269;5525342;-78
2023/06/01 07:15:22;;;;;;;4.20;2.20;;;;;;;26.81;33.91;96765.11;109262;1269;25332;-82
2023/06/01 07:17:53;;;;;;;4.40;2.40;;;;;;;26.72;33.22;96765.83;109365;1269;22522;-84
2023/06/01 07:20:24;;;;;;;4.00;2.50;;;;;;;26.25;32.70;96764.86;109340;1269;22516;-85
2023/06/01 07:22:57;;;;;;;5.90;2.60;;;;;;;26.00;33.44;96762.31;109267;1266;26570;-84
2023/06/01 07:25:28;;;;;;;4.90;2.60;;;;;;;26.18;34.06;96759.60;109300;1269;22522;-82
2023/06/01 07:28:00;;;;;;;7.20;2.20;;;;;;;26.48;33.27;96760.23;109282;1269;22568;-82
2023/06/01 07:30:31;;;;;;;5.20;2.40;;;;;;;26.69;33.02;96762.86;109263;1264;22873;-81
2023/06/01 07:33:02;;;;;;;5.50;2.40;;;;;;;26.79;32.61;96757.27;109304;1269;22518;-81
2023/06/01 07:35:34;;;;;;;5.80;2.20;;;;;;;26.89;32.51;96759.56;109394;1262;22542;-81
2023/06/01 07:38:07;;;;;;;4.50;2.30;;;;;;;27.04;32.25;96755.69;109281;1269;22498;-81
2023/06/01 07:40:38;;;;;;;4.80;2.20;;;;;;;27.10;32.44;96753.46;109265;1266;22518;-81
2023/06/01 07:43:09;;;;;;;4.80;2.10;;;;;;;26.97;32.25;96751.59;109265;1269;25351;-81
2023/06/01 07:45:42;;;;;;;8.40;2.60;;;;;;;26.91;32.05;96750.48;109307;1263;22511;-81
2023/06/01 07:48:13;;;;;;;3.50;2.10;;;;;;;26.88;31.69;96746.02;109370;1263;26513;-81
2023/06/01 07:50:45;;;;;;;4.70;2.30;;;;;;;27.01;31.85;96745.17;109289;1267;22507;-81
2023/06/01 07:53:19;;;;;;;5.40;2.40;;;;;;;27.06;31.56;96741.55;109195;1266;22531;-81
2023/06/01 07:55:51;;;;;;;3.70;2.40;;;;;;;27.07;31.99;96741.55;109179;1254;22516;-83
2023/06/01 07:58:22;;;;;;;5.30;2.40;;;;;;;27.08;31.68;96741.86;109282;1266;22546;-82
2023/06/01 08:00:53;;;;;;;4.20;2.00;;;;;;;26.58;31.55;96742.52;109167;1261;22508;-81
2023/06/01 08:03:25;;;;;;;6.80;2.30;;;;;;;26.48;31.98;96742.53;109044;1261;24460;-79
2023/06/01 08:05:59;;;;;;;7.20;2.90;;;;;;;26.64;31.74;96738.67;109072;1269;22534;-80
2023/06/01 08:08:30;;;;;;;3.90;2.50;;;;;;;26.62;32.15;96730.65;108962;1270;24489;-78
2023/06/01 08:11:01;;;;;;;4.70;2.40;;;;;;;26.72;32.42;96728.98;109005;1263;25275;-79
2023/06/01 08:13:35;;;;;;;2.80;2.30;;;;;;;26.65;32.34;96728.19;109047;1263;25433;-81
2023/06/01 08:16:08;;;;;;;5.10;2.40;;;;;;;26.50;31.81;96728.41;109057;1263;25407;-80
2023/06/01 08:18:39;;;;;;;6.20;2.60;;;;;;;26.48;32.07;96724.52;108616;1262;285282;-82
2023/06/01 08:21:14;;;;;;;5.20;2.40;;;;;;;26.29;32.15;96722.41;109076;1269;22576;-83
2023/06/01 08:23:51;;;;;;;8.10;2.70;;;;;;;26.10;32.13;96718.15;108834;1261;22517;-82
2023/06/01 08:26:23;;;;;;;2.50;2.10;;;;;;;25.85;32.04;96718.27;108853;1267;22520;-80
2023/06/01 08:28:54;;;;;;;4.00;2.20;;;;;;;25.94;33.06;96717.48;108829;1264;22556;-83
2023/06/01 08:31:26;;;;;;;4.90;2.20;;;;;;;26.09;32.44;96720.56;108928;1263;22560;-83
2023/06/01 08:33:57;;;;;;;6.90;2.10;;;;;;;26.03;32.34;96714.38;109116;1269;22515;-83
2023/06/01 08:36:28;;;;;;;4.60;2.50;;;;;;;25.79;32.41;96712.77;109206;1269;23378;-84
2023/06/01 08:38:59;;;;;;;3.90;2.40;;;;;;;25.52;32.34;96711.55;109205;1269;22578;-84
2023/06/01 08:41:38;;;;;;;6.60;2.40;;;;;;;25.34;33.64;96714.48;109029;1263;24238;-84
2023/06/01 08:44:11;;;;;;;6.50;2.70;;;;;;;25.55;33.65;96710.42;109306;1266;22676;-83
2023/06/01 08:46:44;;;;;;;4.90;2.50;;;;;;;25.62;33.22;96705.30;109301;1263;22519;-83
2023/06/01 08:49:17;;;;;;;5.60;2.40;;;;;;;25.43;33.72;96706.81;109299;1269;25281;-82
2023/06/01 08:51:52;;;;;;;4.00;2.60;;;;;;;25.40;33.57;96706.16;109358;1269;25367;-82
2023/06/01 08:54:23;;;;;;;4.10;2.20;;;;;;;25.34;33.18;96706.17;109150;1262;22515;-83
2023/06/01 08:56:55;;;;;;;3.00;2.30;;;;;;;25.18;33.68;96700.89;109304;1262;22507;-85
2023/06/01 08:59:26;;;;;;;8.50;2.90;;;;;;;25.17;34.35;96698.47;109365;1263;22600;-75
2023/06/01 09:02:00;;;;;;;5.00;2.60;;;;;;;25.12;34.05;96698.58;109390;1269;24174;-83
2023/06/01 09:04:34;;;;;;;4.00;2.30;;;;;;;24.86;34.41;96692.58;109438;1264;25394;-75
2023/06/01 09:07:07;;;;;;;5.40;2.50;;;;;;;24.74;35.10;96691.41;109378;1263;22695;-75
2023/06/01 09:09:48;;;;;;;4.00;2.60;;;;;;;24.77;35.46;96690.23;109175;1262;22677;-75
2023/06/01 09:12:38;;;;;;;5.90;2.50;;;;;;;24.66;35.61;96685.73;109039;1263;22562;-76
2023/06/01 09:15:19;;;;;;;4.30;2.50;;;;;;;24.43;35.30;96684.80;108799;1264;22593;-75
2023/06/01 09:17:53;;;;;;;6.30;2.60;;;;;;;24.24;35.53;96685.13;109009;1263;23767;-75
2023/06/01 09:20:31;;;;;;;6.40;2.30;;;;;;;24.18;35.70;96683.73;108995;1267;24279;-74
2023/06/01 09:23:03;;;;;;;5.80;2.70;;;;;;;24.15;36.32;96679.81;109122;1263;22519;-76
2023/06/01 09:25:40;;;;;;;6.10;2.50;;;;;;;24.11;36.05;96678.91;108762;1262;22559;-76
2023/06/01 09:28:26;;;;;;;5.10;2.40;;;;;;;24.03;36.13;96677.21;109048;1262;22510;-75
2023/06/01 09:31:13;;;;;;;5.50;2.60;;;;;;;24.09;36.72;96668.59;108885;1270;22562;-75
2023/06/01 09:34:01;;;;;;;4.60;2.40;;;;;;;24.12;36.38;96671.41;108957;1262;24711;-75
2023/06/01 09:36:33;;;;;;;5.60;2.60;;;;;;;23.98;36.59;96668.10;108860;1270;23382;-75
2023/06/01 09:39:06;;;;;;;5.00;2.60;;;;;;;23.88;36.94;96664.30;108988;1262;22520;-75
2023/06/01 09:41:54;;;;;;;5.90;2.50;;;;;;;23.81;36.82;96666.52;109051;1270;25390;-75
2023/06/01 09:44:30;;;;;;;5.10;2.40;;;;;;;23.82;37.45;96658.41;109154;1263;26291;-76
2023/06/01 09:47:02;;;;;;;4.20;2.10;;;;;;;23.98;37.96;96659.74;109206;1262;22548;-74
2023/06/01 09:49:36;;;;;;;6.70;2.80;;;;;;;23.99;36.81;96664.80;109228;1269;22582;-74
2023/06/01 09:52:16;;;;;;;5.20;2.80;;;;;;;23.82;36.53;96660.73;109192;1266;22497;-74
2023/06/01 09:54:49;;;;;;;4.40;2.20;;;;;;;23.72;36.78;96659.01;109285;1263;22510;-74
2023/06/01 09:57:29;;;;;;;7.40;2.80;;;;;;;23.65;36.85;96653.80;109246;1263;22519;-74
2023/06/01 10:00:04;;;;;;;5.90;2.70;;;;;;;23.57;37.11;96653.52;109269;1263;25406;-74
2023/06/01 10:02:44;;;;;;;5.90;2.60;;;;;;;23.42;36.84;96654.70;109152;1256;22507;-73
2023/06/01 10:05:20;;;;;;;5.60;2.70;;;;;;;23.32;37.08;96650.12;109179;1262;23894;-74
2023/06/01 10:07:52;;;;;;;5.10;1.90;;;;;;;23.40;37.84;96648.87;109170;1263;22627;-74
2023/06/01 10:10:23;;;;;;;4.20;2.40;;;;;;;23.52;37.93;96643.21;109207;1269;22617;-75
2023/06/01 10:12:54;;;;;;;6.60;2.90;;;;;;;23.64;37.54;96644.59;109230;1263;23877;-75
2023/06/01 10:15:25;;;;;;;3.80;2.30;;;;;;;23.64;37.29;96640.02;109251;1266;22517;-75
2023/06/01 10:17:57;;;;;;;4.10;2.50;;;;;;;23.69;36.87;96641.89;109323;1269;22504;-74
2023/06/01 10:20:34;;;;;;;4.90;2.90;;;;;;;23.66;37.35;96637.98;109294;1269;22709;-74
2023/06/01 10:23:07;;;;;;;6.80;3.20;;;;;;;23.60;37.45;96639.41;109257;1269;22766;-74
2023/06/01 10:25:43;;;;;;;4.00;2.60;;;;;;;23.66;38.64;96628.38;109326;1269;22504;-75
2023/06/01 10:28:17;;;;;;;5.30;2.30;;;;;;;23.79;38.39;96626.34;109173;1267;22798;-74
2023/06/01 10:31:08;;;;;;;4.20;2.20;;;;;;;23.92;38.16;96623.60;109163;1269;22561;-76
2023/06/01 10:33:57;;;;;;;4.70;2.80;;;;;;;24.05;38.56;96624.02;109277;1260;22503;-75
2023/06/01 10:37:06;;;;;;;7.30;2.60;;;;;;;24.15;37.83;96622.69;109270;1266;24228;-75
2023/06/01 10:39:37;;;;;;;3.50;2.30;;;;;;;23.99;36.76;96620.39;109231;1262;22981;-76
2023/06/01 10:42:40;;;;;;;5.40;2.20;;;;;;;23.98;37.42;96615.18;109274;1259;24233;-76
2023/06/01 10:45:39;;;;;;;3.90;2.60;;;;;;;24.11;38.44;96613.75;109290;1269;25302;-76
2023/06/01 10:48:12;;;;;;;4.30;2.30;;;;;;;24.19;38.05;96605.64;109268;1263;22546;-76
2023/06/01 10:51:04;;;;;;;8.80;2.90;;;;;;;24.17;37.65;96607.08;109215;1267;25431;-77
2023/06/01 10:53:35;;;;;;;4.80;2.70;;;;;;;24.18;37.67;96601.98;109442;1269;22513;-76
2023/06/01 10:56:24;;;;;;;6.00;2.60;;;;;;;24.13;38.15;96604.56;109321;1269;22522;-76
2023/06/01 10:59:14;;;;;;;3.80;2.30;;;;;;;24.21;37.87;96604.83;109343;1263;22516;-77
2023/06/01 11:01:47;;;;;;;5.70;2.30;;;;;;;24.10;37.03;96599.33;109573;1266;22517;-77
2023/06/01 11:04:35;;;;;;;4.10;2.40;;;;;;;24.02;37.53;96590.77;109624;1269;22561;-77
2023/06/01 11:07:39;;;;;;;4.30;2.70;;;;;;;24.05;38.84;96587.58;109501;1263;22554;-77
2023/06/01 11:10:10;;;;;;;3.00;2.30;;;;;;;24.21;38.66;96582.21;109291;1263;24216;-78
2023/06/01 11:13:18;;;;;;;7.40;2.70;;;;;;;24.24;38.28;96586.52;109298;1262;25297;-76
2023/06/01 11:16:35;;;;;;;5.60;2.50;;;;;;;24.26;37.61;96580.59;109207;1266;25226;-76
2023/06/01 11:19:08;;;;;;;6.60;2.60;;;;;;;24.25;37.69;96576.86;108795;1268;25240;-76
2023/06/01 11:21:47;;;;;;;3.90;2.20;;;;;;;24.18;37.59;96579.00;109145;1262;22564;-76
2023/06/01 11:24:19;;;;;;;6.30;2.60;;;;;;;24.22;37.93;96574.27;109297;1269;27052;-76
2023/06/01 11:26:51;;;;;;;6.20;2.80;;;;;;;24.20;37.34;96571.75;109297;1266;23798;-75
2023/06/01 11:29:25;;;;;;;4.00;2.40;;;;;;;24.19;38.14;96566.24;109336;1263;23802;-76
2023/06/01 11:32:00;;;;;;;6.70;2.60;;;;;;;24.26;38.32;96562.70;109277;1263;25942;-76
2023/06/01 11:34:37;;;;;;;6.40;2.30;;;;;;;24.31;37.79;96563.09;109274;1263;22504;-76
2023/06/01 11:37:15;;;;;;;3.70;2.60;;;;;;;24.23;37.85;96559.26;109325;1266;22623;-76
2023/06/01 11:39:47;;;;;;;9.80;2.30;;;;;;;24.23;38.20;96558.48;109274;1263;22525;-77
2023/06/01 11:42:21;;;;;;;5.10;2.40;;;;;;;24.22;37.67;96558.25;109374;1263;22788;-77
2023/06/01 11:45:04;;;;;;;4.20;2.20;;;;;;;24.27;37.46;96555.77;109566;1262;22540;-78
2023/06/01 11:47:37;;;;;;;4.00;2.40;;;;;;;24.34;37.31;96554.30;109631;1247;22607;-77
2023/06/01 11:50:25;;;;;;;3.80;2.00;;;;;;;24.37;37.17;96547.70;109597;1269;23917;-77
2023/06/01 11:52:57;;;;;;;5.20;2.40;;;;;;;24.42;37.55;96542.17;109556;1263;25223;-81
2023/06/01 11:55:28;;;;;;;6.30;2.60;;;;;;;24.48;37.34;96542.15;109650;1264;22631;-78